sensor_id;sensor_type;location;lat;lon;timestamp;temperature;humidity
5061;DHT22;2549;52.128;21.068;2022-09-09T00:06:50;18.20;91.30
5061;DHT22;2549;52.128;21.068;2022-09-09T00:09:26;18.00;91.10
5061;DHT22;2549;52.128;21.068;2022-09-09T00:12:14;18.00;91.00
5061;DHT22;2549;52.128;21.068;2022-09-09T00:14:54;18.00;91.90
5061;DHT22;2549;52.128;21.068;2022-09-09T00:20:16;18.00;92.00
5061;DHT22;2549;52.128;21.068;2022-09-09T00:23:20;18.00;91.80
5061;DHT22;2549;52.128;21.068;2022-09-09T00:31:29;17.80;92.90
5061;DHT22;2549;52.128;21.068;2022-09-09T00:36:40;17.80;93.20
5061;DHT22;2549;52.128;21.068;2022-09-09T00:39:44;17.70;93.00
5061;DHT22;2549;52.128;21.068;2022-09-09T00:42:42;17.70;93.60
5061;DHT22;2549;52.128;21.068;2022-09-09T00:48:06;17.60;93.80
5061;DHT22;2549;52.128;21.068;2022-09-09T00:50:48;17.60;94.40
5061;DHT22;2549;52.128;21.068;2022-09-09T00:58:28;17.70;94.80
5061;DHT22;2549;52.128;21.068;2022-09-09T01:03:55;17.60;95.20
5061;DHT22;2549;52.128;21.068;2022-09-09T01:06:32;17.60;95.40
5061;DHT22;2549;52.128;21.068;2022-09-09T01:14:47;17.60;96.00
5061;DHT22;2549;52.128;21.068;2022-09-09T01:17:21;17.60;96.50
5061;DHT22;2549;52.128;21.068;2022-09-09T01:20:07;17.60;96.60
5061;DHT22;2549;52.128;21.068;2022-09-09T01:28:16;17.50;96.90
5061;DHT22;2549;52.128;21.068;2022-09-09T01:30:43;17.50;96.90
5061;DHT22;2549;52.128;21.068;2022-09-09T01:33:17;17.40;97.20
5061;DHT22;2549;52.128;21.068;2022-09-09T01:35:52;17.40;97.20
5061;DHT22;2549;52.128;21.068;2022-09-09T01:38:24;17.40;97.20
5061;DHT22;2549;52.128;21.068;2022-09-09T01:40:52;17.40;98.40
5061;DHT22;2549;52.128;21.068;2022-09-09T01:43:20;17.40;98.10
5061;DHT22;2549;52.128;21.068;2022-09-09T01:45:50;17.40;98.00
5061;DHT22;2549;52.128;21.068;2022-09-09T01:48:19;17.40;98.10
5061;DHT22;2549;52.128;21.068;2022-09-09T01:50:46;17.40;98.50
5061;DHT22;2549;52.128;21.068;2022-09-09T01:53:14;17.40;98.40
5061;DHT22;2549;52.128;21.068;2022-09-09T02:04:01;17.40;98.40
5061;DHT22;2549;52.128;21.068;2022-09-09T02:06:38;17.40;98.60
5061;DHT22;2549;52.128;21.068;2022-09-09T02:09:07;17.40;98.30
5061;DHT22;2549;52.128;21.068;2022-09-09T02:11:37;17.40;98.50
5061;DHT22;2549;52.128;21.068;2022-09-09T02:14:14;17.40;98.60
5061;DHT22;2549;52.128;21.068;2022-09-09T02:16:54;17.40;98.70
5061;DHT22;2549;52.128;21.068;2022-09-09T02:19:32;17.40;98.60
5061;DHT22;2549;52.128;21.068;2022-09-09T02:22:00;17.40;98.30
5061;DHT22;2549;52.128;21.068;2022-09-09T02:24:30;17.40;98.70
5061;DHT22;2549;52.128;21.068;2022-09-09T02:26:58;17.40;98.80
5061;DHT22;2549;52.128;21.068;2022-09-09T02:29:40;17.40;98.70
5061;DHT22;2549;52.128;21.068;2022-09-09T02:32:18;17.40;99.10
5061;DHT22;2549;52.128;21.068;2022-09-09T02:34:58;17.40;99.10
5061;DHT22;2549;52.128;21.068;2022-09-09T02:37:31;17.40;99.00
5061;DHT22;2549;52.128;21.068;2022-09-09T02:40:01;17.30;98.80
5061;DHT22;2549;52.128;21.068;2022-09-09T02:42:28;17.30;99.10
5061;DHT22;2549;52.128;21.068;2022-09-09T02:44:55;17.30;99.30
5061;DHT22;2549;52.128;21.068;2022-09-09T02:47:29;17.20;99.30
5061;DHT22;2549;52.128;21.068;2022-09-09T02:50:13;17.20;99.70
5061;DHT22;2549;52.128;21.068;2022-09-09T02:55:39;17.20;99.80
5061;DHT22;2549;52.128;21.068;2022-09-09T02:58:11;17.20;99.80
5061;DHT22;2549;52.128;21.068;2022-09-09T03:00:39;17.20;99.90
5061;DHT22;2549;52.128;21.068;2022-09-09T03:03:07;17.20;99.90
5061;DHT22;2549;52.128;21.068;2022-09-09T03:05:35;17.20;99.90
5061;DHT22;2549;52.128;21.068;2022-09-09T03:08:04;17.20;99.90
5061;DHT22;2549;52.128;21.068;2022-09-09T03:10:32;17.20;99.90
5061;DHT22;2549;52.128;21.068;2022-09-09T03:12:59;17.20;99.90
5061;DHT22;2549;52.128;21.068;2022-09-09T03:15:27;17.20;99.90
5061;DHT22;2549;52.128;21.068;2022-09-09T03:17:57;17.20;99.90
5061;DHT22;2549;52.128;21.068;2022-09-09T03:20:25;17.20;99.90
5061;DHT22;2549;52.128;21.068;2022-09-09T03:22:53;17.20;99.90
5061;DHT22;2549;52.128;21.068;2022-09-09T03:25:21;17.20;99.90
5061;DHT22;2549;52.128;21.068;2022-09-09T03:27:51;17.20;99.90
5061;DHT22;2549;52.128;21.068;2022-09-09T03:30:25;17.10;99.90
5061;DHT22;2549;52.128;21.068;2022-09-09T03:32:52;17.10;99.90
5061;DHT22;2549;52.128;21.068;2022-09-09T03:35:19;17.10;99.90
5061;DHT22;2549;52.128;21.068;2022-09-09T03:37:46;17.10;99.90
5061;DHT22;2549;52.128;21.068;2022-09-09T03:40:13;17.00;99.90
5061;DHT22;2549;52.128;21.068;2022-09-09T03:42:40;17.00;99.90
5061;DHT22;2549;52.128;21.068;2022-09-09T03:45:08;17.00;99.90
5061;DHT22;2549;52.128;21.068;2022-09-09T03:47:37;17.00;99.90
5061;DHT22;2549;52.128;21.068;2022-09-09T03:50:06;17.00;99.90
5061;DHT22;2549;52.128;21.068;2022-09-09T03:52:36;17.00;99.90
5061;DHT22;2549;52.128;21.068;2022-09-09T03:55:04;17.10;99.90
5061;DHT22;2549;52.128;21.068;2022-09-09T03:57:31;17.10;99.90
5061;DHT22;2549;52.128;21.068;2022-09-09T04:00:10;17.10;99.90
5061;DHT22;2549;52.128;21.068;2022-09-09T04:02:37;17.10;99.90
5061;DHT22;2549;52.128;21.068;2022-09-09T04:05:06;17.10;99.90
5061;DHT22;2549;52.128;21.068;2022-09-09T04:07:33;17.00;99.90
5061;DHT22;2549;52.128;21.068;2022-09-09T04:10:00;17.10;99.90
5061;DHT22;2549;52.128;21.068;2022-09-09T04:12:27;17.10;99.90
5061;DHT22;2549;52.128;21.068;2022-09-09T04:14:54;17.10;99.90
5061;DHT22;2549;52.128;21.068;2022-09-09T04:17:20;17.10;99.90
5061;DHT22;2549;52.128;21.068;2022-09-09T04:19:47;17.10;99.90
5061;DHT22;2549;52.128;21.068;2022-09-09T04:22:14;17.10;99.90
5061;DHT22;2549;52.128;21.068;2022-09-09T04:24:42;17.10;99.90
5061;DHT22;2549;52.128;21.068;2022-09-09T04:27:14;17.10;99.90
5061;DHT22;2549;52.128;21.068;2022-09-09T04:29:41;17.00;99.90
5061;DHT22;2549;52.128;21.068;2022-09-09T04:32:07;17.00;99.90
5061;DHT22;2549;52.128;21.068;2022-09-09T04:34:34;17.00;99.90
5061;DHT22;2549;52.128;21.068;2022-09-09T04:37:01;17.00;99.90
5061;DHT22;2549;52.128;21.068;2022-09-09T04:39:28;16.90;99.90
5061;DHT22;2549;52.128;21.068;2022-09-09T04:41:56;16.90;99.90
5061;DHT22;2549;52.128;21.068;2022-09-09T04:44:23;16.90;99.90
5061;DHT22;2549;52.128;21.068;2022-09-09T04:46:49;16.90;99.90
5061;DHT22;2549;52.128;21.068;2022-09-09T04:49:16;16.90;99.90
5061;DHT22;2549;52.128;21.068;2022-09-09T04:51:44;17.00;99.90
5061;DHT22;2549;52.128;21.068;2022-09-09T04:54:11;17.00;99.90
5061;DHT22;2549;52.128;21.068;2022-09-09T04:56:38;17.00;99.90
5061;DHT22;2549;52.128;21.068;2022-09-09T04:59:05;17.00;99.90
5061;DHT22;2549;52.128;21.068;2022-09-09T05:01:32;17.00;99.90
5061;DHT22;2549;52.128;21.068;2022-09-09T05:03:59;17.00;99.90
5061;DHT22;2549;52.128;21.068;2022-09-09T05:06:25;17.00;99.90
5061;DHT22;2549;52.128;21.068;2022-09-09T05:08:52;17.00;99.90
5061;DHT22;2549;52.128;21.068;2022-09-09T05:11:20;17.00;99.90
5061;DHT22;2549;52.128;21.068;2022-09-09T05:13:49;17.00;99.90
5061;DHT22;2549;52.128;21.068;2022-09-09T05:16:17;17.00;99.90
5061;DHT22;2549;52.128;21.068;2022-09-09T05:18:44;17.00;99.90
5061;DHT22;2549;52.128;21.068;2022-09-09T05:21:13;17.00;99.90
5061;DHT22;2549;52.128;21.068;2022-09-09T05:23:41;16.90;99.90
5061;DHT22;2549;52.128;21.068;2022-09-09T05:26:11;16.90;99.90
5061;DHT22;2549;52.128;21.068;2022-09-09T05:28:43;16.90;99.90
5061;DHT22;2549;52.128;21.068;2022-09-09T05:31:13;16.90;99.90
5061;DHT22;2549;52.128;21.068;2022-09-09T05:33:41;17.00;99.90
5061;DHT22;2549;52.128;21.068;2022-09-09T05:36:11;17.00;99.90
5061;DHT22;2549;52.128;21.068;2022-09-09T05:38:42;17.00;99.90
5061;DHT22;2549;52.128;21.068;2022-09-09T05:41:10;17.00;99.90
5061;DHT22;2549;52.128;21.068;2022-09-09T05:43:43;17.00;99.90
5061;DHT22;2549;52.128;21.068;2022-09-09T05:46:19;17.00;99.90
5061;DHT22;2549;52.128;21.068;2022-09-09T05:48:47;17.00;99.90
5061;DHT22;2549;52.128;21.068;2022-09-09T05:51:19;17.00;99.90
5061;DHT22;2549;52.128;21.068;2022-09-09T05:53:48;17.00;99.90
5061;DHT22;2549;52.128;21.068;2022-09-09T05:56:20;17.00;99.90
5061;DHT22;2549;52.128;21.068;2022-09-09T05:58:49;17.00;99.90
5061;DHT22;2549;52.128;21.068;2022-09-09T06:01:18;17.00;99.90
5061;DHT22;2549;52.128;21.068;2022-09-09T06:03:47;17.00;99.90
5061;DHT22;2549;52.128;21.068;2022-09-09T06:06:16;17.00;99.90
5061;DHT22;2549;52.128;21.068;2022-09-09T06:08:44;17.00;99.90
5061;DHT22;2549;52.128;21.068;2022-09-09T06:11:18;17.00;99.90
5061;DHT22;2549;52.128;21.068;2022-09-09T06:13:45;17.00;99.90
5061;DHT22;2549;52.128;21.068;2022-09-09T06:16:14;17.00;99.90
5061;DHT22;2549;52.128;21.068;2022-09-09T06:18:41;17.00;99.90
5061;DHT22;2549;52.128;21.068;2022-09-09T06:21:15;17.00;99.90
5061;DHT22;2549;52.128;21.068;2022-09-09T06:23:43;17.00;99.90
5061;DHT22;2549;52.128;21.068;2022-09-09T06:26:15;17.00;99.90
5061;DHT22;2549;52.128;21.068;2022-09-09T06:28:45;17.10;99.90
5061;DHT22;2549;52.128;21.068;2022-09-09T06:31:14;17.00;99.90
5061;DHT22;2549;52.128;21.068;2022-09-09T06:33:41;17.10;99.90
5061;DHT22;2549;52.128;21.068;2022-09-09T06:36:18;17.00;99.90
5061;DHT22;2549;52.128;21.068;2022-09-09T06:38:45;17.10;99.90
5061;DHT22;2549;52.128;21.068;2022-09-09T06:41:14;17.10;99.90
5061;DHT22;2549;52.128;21.068;2022-09-09T06:43:41;17.10;99.90
5061;DHT22;2549;52.128;21.068;2022-09-09T06:46:16;17.10;99.90
5061;DHT22;2549;52.128;21.068;2022-09-09T06:48:44;17.10;99.90
5061;DHT22;2549;52.128;21.068;2022-09-09T06:51:15;17.10;99.90
5061;DHT22;2549;52.128;21.068;2022-09-09T06:53:44;17.10;99.90
5061;DHT22;2549;52.128;21.068;2022-09-09T06:58:43;17.10;99.90
5061;DHT22;2549;52.128;21.068;2022-09-09T07:01:15;17.20;99.90
5061;DHT22;2549;52.128;21.068;2022-09-09T07:03:46;17.20;99.90
5061;DHT22;2549;52.128;21.068;2022-09-09T07:06:17;17.20;99.90
5061;DHT22;2549;52.128;21.068;2022-09-09T07:08:47;17.20;99.90
5061;DHT22;2549;52.128;21.068;2022-09-09T07:11:24;17.30;99.90
5061;DHT22;2549;52.128;21.068;2022-09-09T07:13:53;17.30;99.90
5061;DHT22;2549;52.128;21.068;2022-09-09T07:16:21;17.30;99.90
5061;DHT22;2549;52.128;21.068;2022-09-09T07:18:52;17.30;99.90
5061;DHT22;2549;52.128;21.068;2022-09-09T07:21:21;17.30;99.90
5061;DHT22;2549;52.128;21.068;2022-09-09T07:23:48;17.30;99.90
5061;DHT22;2549;52.128;21.068;2022-09-09T07:26:21;17.30;99.90
5061;DHT22;2549;52.128;21.068;2022-09-09T07:28:48;17.30;99.90
5061;DHT22;2549;52.128;21.068;2022-09-09T07:31:18;17.30;99.90
5061;DHT22;2549;52.128;21.068;2022-09-09T07:33:46;17.30;99.90
5061;DHT22;2549;52.128;21.068;2022-09-09T07:36:21;17.30;99.90
5061;DHT22;2549;52.128;21.068;2022-09-09T07:38:55;17.30;99.90
5061;DHT22;2549;52.128;21.068;2022-09-09T07:41:28;17.30;99.90
5061;DHT22;2549;52.128;21.068;2022-09-09T07:43:55;17.30;99.90
5061;DHT22;2549;52.128;21.068;2022-09-09T07:46:24;17.30;99.90
5061;DHT22;2549;52.128;21.068;2022-09-09T07:48:54;17.30;99.90
5061;DHT22;2549;52.128;21.068;2022-09-09T07:51:27;17.30;99.90
5061;DHT22;2549;52.128;21.068;2022-09-09T07:54:00;17.40;99.90
5061;DHT22;2549;52.128;21.068;2022-09-09T07:56:29;17.30;99.90
5061;DHT22;2549;52.128;21.068;2022-09-09T07:58:57;17.40;99.90
5061;DHT22;2549;52.128;21.068;2022-09-09T08:01:26;17.40;99.90
5061;DHT22;2549;52.128;21.068;2022-09-09T08:04:00;17.30;99.90
5061;DHT22;2549;52.128;21.068;2022-09-09T08:06:30;17.30;99.90
5061;DHT22;2549;52.128;21.068;2022-09-09T08:08:58;17.30;99.90
5061;DHT22;2549;52.128;21.068;2022-09-09T08:11:27;17.30;99.90
5061;DHT22;2549;52.128;21.068;2022-09-09T08:13:54;17.30;99.90
5061;DHT22;2549;52.128;21.068;2022-09-09T08:16:33;17.30;99.90
5061;DHT22;2549;52.128;21.068;2022-09-09T08:19:00;17.30;99.90
5061;DHT22;2549;52.128;21.068;2022-09-09T08:21:29;17.40;99.90
5061;DHT22;2549;52.128;21.068;2022-09-09T08:23:57;17.40;99.90
5061;DHT22;2549;52.128;21.068;2022-09-09T08:26:31;17.40;99.90
5061;DHT22;2549;52.128;21.068;2022-09-09T08:28:59;17.40;99.90
5061;DHT22;2549;52.128;21.068;2022-09-09T08:31:35;17.40;99.90
5061;DHT22;2549;52.128;21.068;2022-09-09T08:34:02;17.40;99.90
5061;DHT22;2549;52.128;21.068;2022-09-09T08:36:33;17.40;99.90
5061;DHT22;2549;52.128;21.068;2022-09-09T08:39:01;17.50;99.90
5061;DHT22;2549;52.128;21.068;2022-09-09T08:56:02;17.50;99.90
5061;DHT22;2549;52.128;21.068;2022-09-09T08:58:32;17.60;99.90
5061;DHT22;2549;52.128;21.068;2022-09-09T09:09:08;17.70;99.90
5061;DHT22;2549;52.128;21.068;2022-09-09T09:14:23;17.80;99.90
5061;DHT22;2549;52.128;21.068;2022-09-09T09:16:55;17.70;99.90
5061;DHT22;2549;52.128;21.068;2022-09-09T09:19:24;17.80;99.90
5061;DHT22;2549;52.128;21.068;2022-09-09T09:27:24;17.70;99.90
5061;DHT22;2549;52.128;21.068;2022-09-09T09:29:54;17.80;99.90
5061;DHT22;2549;52.128;21.068;2022-09-09T09:35:17;17.80;99.90
5061;DHT22;2549;52.128;21.068;2022-09-09T09:37:43;17.80;99.90
5061;DHT22;2549;52.128;21.068;2022-09-09T09:40:31;17.80;99.90
5061;DHT22;2549;52.128;21.068;2022-09-09T09:43:00;17.80;99.90
5061;DHT22;2549;52.128;21.068;2022-09-09T09:45:32;17.90;99.90
5061;DHT22;2549;52.128;21.068;2022-09-09T09:48:08;17.90;99.90
5061;DHT22;2549;52.128;21.068;2022-09-09T09:50:57;17.90;99.90
5061;DHT22;2549;52.128;21.068;2022-09-09T09:53:30;17.80;99.90
5061;DHT22;2549;52.128;21.068;2022-09-09T09:56:00;17.90;99.90
5061;DHT22;2549;52.128;21.068;2022-09-09T09:58:31;17.90;99.90
5061;DHT22;2549;52.128;21.068;2022-09-09T10:01:01;17.90;99.90
5061;DHT22;2549;52.128;21.068;2022-09-09T10:03:33;17.90;99.90
5061;DHT22;2549;52.128;21.068;2022-09-09T10:06:04;17.90;99.90
5061;DHT22;2549;52.128;21.068;2022-09-09T10:08:34;17.90;99.90
5061;DHT22;2549;52.128;21.068;2022-09-09T10:16:25;18.00;99.90
5061;DHT22;2549;52.128;21.068;2022-09-09T10:19:19;18.00;99.90
5061;DHT22;2549;52.128;21.068;2022-09-09T10:22:00;18.00;99.90
5061;DHT22;2549;52.128;21.068;2022-09-09T10:27:45;18.00;99.90
5061;DHT22;2549;52.128;21.068;2022-09-09T10:32:53;17.90;99.90
5061;DHT22;2549;52.128;21.068;2022-09-09T10:38:18;17.90;99.90
5061;DHT22;2549;52.128;21.068;2022-09-09T10:44:00;17.90;99.90
5061;DHT22;2549;52.128;21.068;2022-09-09T10:55:07;18.00;99.90
5061;DHT22;2549;52.128;21.068;2022-09-09T11:00:18;18.00;99.90
5061;DHT22;2549;52.128;21.068;2022-09-09T11:03:06;18.00;99.90
5061;DHT22;2549;52.128;21.068;2022-09-09T11:06:34;18.10;99.90
5061;DHT22;2549;52.128;21.068;2022-09-09T11:08:38;18.00;99.90
5061;DHT22;2549;52.128;21.068;2022-09-09T11:11:29;18.10;99.90
5061;DHT22;2549;52.128;21.068;2022-09-09T11:16:50;18.10;99.90
5061;DHT22;2549;52.128;21.068;2022-09-09T11:19:33;18.10;99.90
5061;DHT22;2549;52.128;21.068;2022-09-09T11:22:36;18.10;99.90
5061;DHT22;2549;52.128;21.068;2022-09-09T11:25:16;18.10;99.90
5061;DHT22;2549;52.128;21.068;2022-09-09T11:38:52;18.20;99.90
5061;DHT22;2549;52.128;21.068;2022-09-09T11:41:21;18.20;99.90
5061;DHT22;2549;52.128;21.068;2022-09-09T11:46:16;18.20;99.90
5061;DHT22;2549;52.128;21.068;2022-09-09T11:48:46;18.20;99.90
5061;DHT22;2549;52.128;21.068;2022-09-09T11:53:55;18.20;99.90
5061;DHT22;2549;52.128;21.068;2022-09-09T11:56:41;18.20;99.90
5061;DHT22;2549;52.128;21.068;2022-09-09T11:59:27;18.30;99.90
5061;DHT22;2549;52.128;21.068;2022-09-09T12:02:03;18.30;99.90
5061;DHT22;2549;52.128;21.068;2022-09-09T12:04:42;18.30;99.90
5061;DHT22;2549;52.128;21.068;2022-09-09T12:17:30;18.30;99.90
5061;DHT22;2549;52.128;21.068;2022-09-09T12:20:22;18.30;99.90
5061;DHT22;2549;52.128;21.068;2022-09-09T12:28:08;18.30;99.90
5061;DHT22;2549;52.128;21.068;2022-09-09T12:33:35;18.30;99.90
5061;DHT22;2549;52.128;21.068;2022-09-09T12:36:03;18.40;99.90
5061;DHT22;2549;52.128;21.068;2022-09-09T12:38:38;18.40;99.90
5061;DHT22;2549;52.128;21.068;2022-09-09T12:41:05;18.40;99.90
5061;DHT22;2549;52.128;21.068;2022-09-09T12:43:32;18.40;99.90
5061;DHT22;2549;52.128;21.068;2022-09-09T12:46:03;18.40;99.90
5061;DHT22;2549;52.128;21.068;2022-09-09T12:48:37;18.40;99.90
5061;DHT22;2549;52.128;21.068;2022-09-09T12:51:16;18.50;99.90
5061;DHT22;2549;52.128;21.068;2022-09-09T12:53:44;18.50;99.90
5061;DHT22;2549;52.128;21.068;2022-09-09T12:56:20;18.50;99.90
5061;DHT22;2549;52.128;21.068;2022-09-09T12:58:50;18.40;99.90
5061;DHT22;2549;52.128;21.068;2022-09-09T13:01:25;18.50;99.90
5061;DHT22;2549;52.128;21.068;2022-09-09T13:03:52;18.50;99.90
5061;DHT22;2549;52.128;21.068;2022-09-09T13:08:59;18.50;99.90
5061;DHT22;2549;52.128;21.068;2022-09-09T13:13:57;18.40;99.90
5061;DHT22;2549;52.128;21.068;2022-09-09T13:16:35;18.40;99.90
5061;DHT22;2549;52.128;21.068;2022-09-09T13:19:13;18.40;99.90
5061;DHT22;2549;52.128;21.068;2022-09-09T13:21:41;18.40;99.90
5061;DHT22;2549;52.128;21.068;2022-09-09T13:24:33;18.40;99.90
5061;DHT22;2549;52.128;21.068;2022-09-09T13:27:27;18.50;99.90
5061;DHT22;2549;52.128;21.068;2022-09-09T13:29:55;18.50;99.90
5061;DHT22;2549;52.128;21.068;2022-09-09T13:32:25;18.50;99.90
5061;DHT22;2549;52.128;21.068;2022-09-09T13:35:00;18.50;99.90
5061;DHT22;2549;52.128;21.068;2022-09-09T13:37:38;18.40;99.90
5061;DHT22;2549;52.128;21.068;2022-09-09T13:40:06;18.40;99.90
5061;DHT22;2549;52.128;21.068;2022-09-09T13:42:37;18.40;99.90
5061;DHT22;2549;52.128;21.068;2022-09-09T13:45:05;18.40;99.90
5061;DHT22;2549;52.128;21.068;2022-09-09T13:47:34;18.40;99.90
5061;DHT22;2549;52.128;21.068;2022-09-09T13:52:48;18.40;99.90
5061;DHT22;2549;52.128;21.068;2022-09-09T13:55:18;18.30;99.90
5061;DHT22;2549;52.128;21.068;2022-09-09T13:57:59;18.30;99.90
5061;DHT22;2549;52.128;21.068;2022-09-09T14:00:30;18.30;99.90
5061;DHT22;2549;52.128;21.068;2022-09-09T14:02:58;18.30;99.90
5061;DHT22;2549;52.128;21.068;2022-09-09T14:05:29;18.30;99.90
5061;DHT22;2549;52.128;21.068;2022-09-09T14:07:58;18.30;99.90
5061;DHT22;2549;52.128;21.068;2022-09-09T14:10:27;18.40;99.90
5061;DHT22;2549;52.128;21.068;2022-09-09T14:12:54;18.40;99.90
5061;DHT22;2549;52.128;21.068;2022-09-09T14:15:21;18.40;99.90
5061;DHT22;2549;52.128;21.068;2022-09-09T14:17:48;18.40;99.90
5061;DHT22;2549;52.128;21.068;2022-09-09T14:20:15;18.40;99.90
5061;DHT22;2549;52.128;21.068;2022-09-09T14:22:44;18.40;99.90
5061;DHT22;2549;52.128;21.068;2022-09-09T14:25:11;18.40;99.90
5061;DHT22;2549;52.128;21.068;2022-09-09T14:27:40;18.40;99.90
5061;DHT22;2549;52.128;21.068;2022-09-09T14:30:07;18.40;99.90
5061;DHT22;2549;52.128;21.068;2022-09-09T14:32:35;18.40;99.90
5061;DHT22;2549;52.128;21.068;2022-09-09T14:35:02;18.40;99.90
5061;DHT22;2549;52.128;21.068;2022-09-09T14:37:29;18.40;99.90
5061;DHT22;2549;52.128;21.068;2022-09-09T14:39:58;18.40;99.90
5061;DHT22;2549;52.128;21.068;2022-09-09T14:42:25;18.40;99.90
5061;DHT22;2549;52.128;21.068;2022-09-09T14:44:53;18.40;99.90
5061;DHT22;2549;52.128;21.068;2022-09-09T14:47:20;18.40;99.90
5061;DHT22;2549;52.128;21.068;2022-09-09T14:49:47;18.40;99.90
5061;DHT22;2549;52.128;21.068;2022-09-09T14:52:16;18.40;99.90
5061;DHT22;2549;52.128;21.068;2022-09-09T14:54:43;18.40;99.90
5061;DHT22;2549;52.128;21.068;2022-09-09T14:57:10;18.50;99.90
5061;DHT22;2549;52.128;21.068;2022-09-09T14:59:37;18.50;99.90
5061;DHT22;2549;52.128;21.068;2022-09-09T15:02:04;18.50;99.90
5061;DHT22;2549;52.128;21.068;2022-09-09T15:04:31;18.50;99.90
5061;DHT22;2549;52.128;21.068;2022-09-09T15:06:59;18.50;99.90
5061;DHT22;2549;52.128;21.068;2022-09-09T15:09:26;18.50;99.90
5061;DHT22;2549;52.128;21.068;2022-09-09T15:11:53;18.50;99.90
5061;DHT22;2549;52.128;21.068;2022-09-09T15:14:20;18.50;99.90
5061;DHT22;2549;52.128;21.068;2022-09-09T15:16:51;18.50;99.90
5061;DHT22;2549;52.128;21.068;2022-09-09T15:19:18;18.50;99.90
5061;DHT22;2549;52.128;21.068;2022-09-09T15:21:45;18.50;99.90
5061;DHT22;2549;52.128;21.068;2022-09-09T15:24:11;18.50;99.90
5061;DHT22;2549;52.128;21.068;2022-09-09T15:26:40;18.50;99.90
5061;DHT22;2549;52.128;21.068;2022-09-09T15:29:07;18.60;99.90
5061;DHT22;2549;52.128;21.068;2022-09-09T15:31:35;18.60;99.90
5061;DHT22;2549;52.128;21.068;2022-09-09T15:34:03;18.60;99.90
5061;DHT22;2549;52.128;21.068;2022-09-09T15:36:43;18.60;99.90
5061;DHT22;2549;52.128;21.068;2022-09-09T15:39:12;18.60;99.90
5061;DHT22;2549;52.128;21.068;2022-09-09T15:41:39;18.60;99.90
5061;DHT22;2549;52.128;21.068;2022-09-09T15:44:06;18.60;99.90
5061;DHT22;2549;52.128;21.068;2022-09-09T15:46:38;18.60;99.90
5061;DHT22;2549;52.128;21.068;2022-09-09T15:51:32;18.60;99.90
5061;DHT22;2549;52.128;21.068;2022-09-09T15:54:17;18.60;99.90
5061;DHT22;2549;52.128;21.068;2022-09-09T15:56:46;18.60;99.90
5061;DHT22;2549;52.128;21.068;2022-09-09T15:59:15;18.60;99.90
5061;DHT22;2549;52.128;21.068;2022-09-09T16:01:43;18.60;99.90
5061;DHT22;2549;52.128;21.068;2022-09-09T16:04:11;18.60;99.90
5061;DHT22;2549;52.128;21.068;2022-09-09T16:06:38;18.60;99.90
5061;DHT22;2549;52.128;21.068;2022-09-09T16:09:06;18.60;99.90
5061;DHT22;2549;52.128;21.068;2022-09-09T16:11:37;18.60;99.90
5061;DHT22;2549;52.128;21.068;2022-09-09T16:14:04;18.60;99.90
5061;DHT22;2549;52.128;21.068;2022-09-09T16:16:33;18.60;99.90
5061;DHT22;2549;52.128;21.068;2022-09-09T16:19:12;18.50;99.90
5061;DHT22;2549;52.128;21.068;2022-09-09T16:21:44;18.50;99.90
5061;DHT22;2549;52.128;21.068;2022-09-09T16:24:14;18.50;99.90
5061;DHT22;2549;52.128;21.068;2022-09-09T16:26:45;18.50;99.90
5061;DHT22;2549;52.128;21.068;2022-09-09T16:29:13;18.50;99.90
5061;DHT22;2549;52.128;21.068;2022-09-09T16:31:41;18.50;99.90
5061;DHT22;2549;52.128;21.068;2022-09-09T16:34:08;18.50;99.90
5061;DHT22;2549;52.128;21.068;2022-09-09T16:36:37;18.50;99.90
5061;DHT22;2549;52.128;21.068;2022-09-09T16:39:08;18.50;99.90
5061;DHT22;2549;52.128;21.068;2022-09-09T16:41:36;18.50;99.90
5061;DHT22;2549;52.128;21.068;2022-09-09T16:44:05;18.50;99.90
5061;DHT22;2549;52.128;21.068;2022-09-09T16:46:38;18.50;99.90
5061;DHT22;2549;52.128;21.068;2022-09-09T16:49:07;18.50;99.90
5061;DHT22;2549;52.128;21.068;2022-09-09T16:51:46;18.50;99.90
5061;DHT22;2549;52.128;21.068;2022-09-09T16:54:15;18.50;99.90
5061;DHT22;2549;52.128;21.068;2022-09-09T16:56:44;18.40;99.90
5061;DHT22;2549;52.128;21.068;2022-09-09T16:59:13;18.40;99.90
5061;DHT22;2549;52.128;21.068;2022-09-09T17:01:42;18.40;99.90
5061;DHT22;2549;52.128;21.068;2022-09-09T17:04:15;18.40;99.90
5061;DHT22;2549;52.128;21.068;2022-09-09T17:06:48;18.40;99.90
5061;DHT22;2549;52.128;21.068;2022-09-09T17:09:19;18.40;99.90
5061;DHT22;2549;52.128;21.068;2022-09-09T17:11:46;18.40;99.90
5061;DHT22;2549;52.128;21.068;2022-09-09T17:14:17;18.40;99.90
5061;DHT22;2549;52.128;21.068;2022-09-09T17:16:44;18.40;99.90
5061;DHT22;2549;52.128;21.068;2022-09-09T17:19:12;18.40;99.90
5061;DHT22;2549;52.128;21.068;2022-09-09T17:21:39;18.40;99.90
5061;DHT22;2549;52.128;21.068;2022-09-09T17:24:26;18.30;99.90
5061;DHT22;2549;52.128;21.068;2022-09-09T17:26:56;18.30;99.90
5061;DHT22;2549;52.128;21.068;2022-09-09T17:29:24;18.30;99.90
5061;DHT22;2549;52.128;21.068;2022-09-09T17:31:51;18.30;99.90
5061;DHT22;2549;52.128;21.068;2022-09-09T17:34:18;18.30;99.90
5061;DHT22;2549;52.128;21.068;2022-09-09T17:36:45;18.30;99.90
5061;DHT22;2549;52.128;21.068;2022-09-09T17:39:12;18.30;99.90
5061;DHT22;2549;52.128;21.068;2022-09-09T17:41:39;18.30;99.90
5061;DHT22;2549;52.128;21.068;2022-09-09T17:44:07;18.20;99.90
5061;DHT22;2549;52.128;21.068;2022-09-09T17:46:36;18.20;99.90
5061;DHT22;2549;52.128;21.068;2022-09-09T17:49:05;18.20;99.90
5061;DHT22;2549;52.128;21.068;2022-09-09T17:51:33;18.20;99.90
5061;DHT22;2549;52.128;21.068;2022-09-09T17:54:03;18.20;99.90
5061;DHT22;2549;52.128;21.068;2022-09-09T17:56:31;18.20;99.90
5061;DHT22;2549;52.128;21.068;2022-09-09T17:59:00;18.20;99.90
5061;DHT22;2549;52.128;21.068;2022-09-09T18:01:30;18.20;99.90
5061;DHT22;2549;52.128;21.068;2022-09-09T18:04:02;18.20;99.90
5061;DHT22;2549;52.128;21.068;2022-09-09T18:06:33;18.20;99.90
5061;DHT22;2549;52.128;21.068;2022-09-09T18:09:04;18.20;99.90
5061;DHT22;2549;52.128;21.068;2022-09-09T18:11:34;18.20;99.90
5061;DHT22;2549;52.128;21.068;2022-09-09T18:14:03;18.20;99.90
5061;DHT22;2549;52.128;21.068;2022-09-09T18:16:32;18.20;99.90
5061;DHT22;2549;52.128;21.068;2022-09-09T18:19:03;18.20;99.90
5061;DHT22;2549;52.128;21.068;2022-09-09T18:21:32;18.20;99.90
5061;DHT22;2549;52.128;21.068;2022-09-09T18:24:01;18.20;99.90
5061;DHT22;2549;52.128;21.068;2022-09-09T18:26:28;18.20;99.90
5061;DHT22;2549;52.128;21.068;2022-09-09T18:28:57;18.10;99.90
5061;DHT22;2549;52.128;21.068;2022-09-09T18:31:26;18.10;99.90
5061;DHT22;2549;52.128;21.068;2022-09-09T18:33:56;18.10;99.90
5061;DHT22;2549;52.128;21.068;2022-09-09T18:36:26;18.10;99.90
5061;DHT22;2549;52.128;21.068;2022-09-09T18:38:56;18.10;99.90
5061;DHT22;2549;52.128;21.068;2022-09-09T18:41:33;18.10;99.90
5061;DHT22;2549;52.128;21.068;2022-09-09T18:44:03;18.10;99.90
5061;DHT22;2549;52.128;21.068;2022-09-09T18:46:33;18.00;99.90
5061;DHT22;2549;52.128;21.068;2022-09-09T18:49:01;18.10;99.90
5061;DHT22;2549;52.128;21.068;2022-09-09T18:51:28;18.00;99.90